Time;durP1;ratioP1;P1;durP2;ratioP2;P2;SDS_P1;SDS_P2;PMS_P1;PMS_P2;Temp;Humidity;BMP_temperature;BMP_pressure;BME280_temperature;BME280_humidity;BME280_pressure;Samples;Min_cycle;Max_cycle;Signal;HPM_P1;HPM_P2
2023/10/26 00:00:33;;;;;;;7.65;6.00;;;;;;;;;;5116880;28;20042;-79
2023/10/26 00:02:59;;;;;;;11.43;6.55;;;;;;;;;;5116216;28;20114;-79
2023/10/26 00:05:26;;;;;;;7.13;5.45;;;;;;;;;;5115574;28;20399;-79
2023/10/26 00:07:52;;;;;;;9.82;6.47;;;;;;;;;;5116100;28;20501;-79
2023/10/26 00:10:18;;;;;;;11.50;6.43;;;;;;;;;;5115589;28;20039;-79
2023/10/26 00:12:44;;;;;;;11.98;6.13;;;;;;;;;;5116117;28;20474;-79
2023/10/26 00:15:10;;;;;;;7.63;5.68;;;;;;;;;;5116016;28;20099;-80
2023/10/26 00:17:39;;;;;;;9.80;7.35;;;;;;;;;;5117009;28;20595;-80
2023/10/26 00:20:06;;;;;;;9.43;6.00;;;;;;;;;;5115985;28;20607;-80
2023/10/26 00:22:32;;;;;;;10.13;7.40;;;;;;;;;;5115665;28;20044;-80
2023/10/26 00:24:59;;;;;;;8.93;6.15;;;;;;;;;;5117309;28;20044;-79
2023/10/26 00:27:24;;;;;;;10.63;6.45;;;;;;;;;;5117541;28;20040;-79
2023/10/26 00:29:50;;;;;;;10.80;6.38;;;;;;;;;;5116863;28;20053;-79
2023/10/26 00:32:17;;;;;;;7.53;4.80;;;;;;;;;;5115763;28;20402;-79
2023/10/26 00:34:44;;;;;;;12.88;7.13;;;;;;;;;;5113722;28;20043;-79
2023/10/26 00:37:10;;;;;;;12.05;6.82;;;;;;;;;;5114488;28;20118;-79
2023/10/26 00:39:36;;;;;;;11.50;7.88;;;;;;;;;;5116836;28;20051;-79
2023/10/26 00:42:02;;;;;;;12.18;7.68;;;;;;;;;;5114514;28;20067;-79
2023/10/26 00:44:28;;;;;;;9.52;7.15;;;;;;;;;;5114161;28;20097;-79
2023/10/26 00:46:55;;;;;;;10.00;7.20;;;;;;;;;;5099084;28;20236;-79
2023/10/26 00:49:21;;;;;;;11.52;7.20;;;;;;;;;;5116913;28;20099;-79
2023/10/26 00:51:50;;;;;;;12.40;7.68;;;;;;;;;;5113885;28;20035;-79
2023/10/26 00:54:16;;;;;;;10.13;6.55;;;;;;;;;;5113693;28;20035;-79
2023/10/26 00:56:43;;;;;;;11.90;7.93;;;;;;;;;;5116199;28;20054;-79
2023/10/26 00:59:09;;;;;;;10.82;6.82;;;;;;;;;;5116333;28;20350;-79
2023/10/26 01:01:35;;;;;;;12.48;7.50;;;;;;;;;;5118234;28;20048;-79
2023/10/26 01:04:02;;;;;;;9.55;6.32;;;;;;;;;;5123574;28;20035;-79
2023/10/26 01:06:28;;;;;;;10.02;6.60;;;;;;;;;;5124727;28;20039;-79
2023/10/26 01:08:54;;;;;;;13.63;7.80;;;;;;;;;;5129587;28;20035;-79
2023/10/26 01:11:21;;;;;;;12.40;8.68;;;;;;;;;;5132825;28;20024;-79
2023/10/26 01:13:47;;;;;;;12.48;8.25;;;;;;;;;;5127622;28;20035;-79
2023/10/26 01:16:14;;;;;;;11.45;7.53;;;;;;;;;;5121909;28;20055;-79
2023/10/26 01:18:40;;;;;;;11.07;7.57;;;;;;;;;;5108017;28;20055;-79
2023/10/26 01:21:06;;;;;;;12.63;8.98;;;;;;;;;;5113078;28;20478;-79
2023/10/26 01:23:32;;;;;;;10.70;7.43;;;;;;;;;;5114440;28;20565;-79
2023/10/26 01:25:58;;;;;;;16.95;8.88;;;;;;;;;;5113499;28;20066;-79
2023/10/26 01:28:25;;;;;;;14.40;9.88;;;;;;;;;;5116005;28;20127;-79
2023/10/26 01:30:52;;;;;;;14.77;10.25;;;;;;;;;;5096969;28;20040;-79
2023/10/26 01:33:19;;;;;;;14.13;9.27;;;;;;;;;;5109749;28;20093;-79
2023/10/26 01:35:46;;;;;;;13.38;8.93;;;;;;;;;;5114028;28;20070;-79
2023/10/26 01:38:15;;;;;;;13.27;8.48;;;;;;;;;;5113227;28;20057;-79
2023/10/26 01:40:41;;;;;;;14.27;8.02;;;;;;;;;;5113161;28;20040;-79
2023/10/26 01:43:07;;;;;;;12.20;8.63;;;;;;;;;;5115271;28;20040;-79
2023/10/26 01:45:33;;;;;;;11.52;7.38;;;;;;;;;;5115435;28;20103;-79
2023/10/26 01:48:00;;;;;;;12.77;7.63;;;;;;;;;;5113793;28;20063;-79
2023/10/26 01:50:26;;;;;;;14.30;9.63;;;;;;;;;;5112778;28;20039;-79
2023/10/26 01:52:53;;;;;;;14.98;9.20;;;;;;;;;;5114849;28;20494;-79
2023/10/26 01:55:19;;;;;;;14.18;7.95;;;;;;;;;;5112505;28;20440;-79
2023/10/26 01:57:45;;;;;;;12.40;8.30;;;;;;;;;;5112144;28;20134;-79
2023/10/26 02:00:11;;;;;;;14.18;7.82;;;;;;;;;;5111349;28;20078;-79
2023/10/26 02:02:37;;;;;;;13.60;8.32;;;;;;;;;;5115080;28;20043;-79
2023/10/26 02:05:03;;;;;;;13.80;10.00;;;;;;;;;;5114217;28;20043;-79
2023/10/26 02:07:29;;;;;;;16.98;10.27;;;;;;;;;;5114881;28;20482;-79
2023/10/26 02:09:56;;;;;;;14.65;9.48;;;;;;;;;;5115039;28;20031;-79
2023/10/26 02:12:22;;;;;;;12.93;8.70;;;;;;;;;;5105269;28;20081;-79
2023/10/26 02:14:49;;;;;;;14.80;10.45;;;;;;;;;;5105826;28;20039;-79
2023/10/26 02:17:15;;;;;;;14.15;8.73;;;;;;;;;;5107599;28;20070;-79
2023/10/26 02:19:41;;;;;;;16.35;9.82;;;;;;;;;;5112201;28;20103;-79
2023/10/26 02:22:07;;;;;;;15.60;9.50;;;;;;;;;;5113959;28;20065;-79
2023/10/26 02:24:33;;;;;;;15.27;10.13;;;;;;;;;;5114853;28;20498;-79
2023/10/26 02:26:59;;;;;;;16.50;11.50;;;;;;;;;;5114406;28;20486;-79
2023/10/26 02:29:25;;;;;;;18.83;12.10;;;;;;;;;;5114267;28;20043;-79
2023/10/26 02:31:51;;;;;;;17.17;10.73;;;;;;;;;;5111937;28;20426;-79
2023/10/26 02:34:17;;;;;;;17.85;10.40;;;;;;;;;;5111565;28;20044;-80
2023/10/26 02:36:43;;;;;;;15.50;9.07;;;;;;;;;;5118422;28;20093;-79
2023/10/26 02:39:09;;;;;;;18.00;10.10;;;;;;;;;;5117793;28;20071;-79
2023/10/26 02:41:35;;;;;;;16.65;11.23;;;;;;;;;;5112318;28;20095;-79
2023/10/26 02:44:01;;;;;;;19.90;11.98;;;;;;;;;;5108111;27;20040;-79
2023/10/26 02:46:27;;;;;;;14.93;9.45;;;;;;;;;;5113877;27;20081;-79
2023/10/26 02:48:53;;;;;;;18.27;9.82;;;;;;;;;;5116171;28;20046;-79
2023/10/26 02:51:19;;;;;;;11.88;7.97;;;;;;;;;;5116241;28;20039;-79
2023/10/26 02:53:45;;;;;;;15.82;9.73;;;;;;;;;;5115299;28;20073;-79
2023/10/26 02:56:11;;;;;;;14.88;9.35;;;;;;;;;;5116128;28;20047;-79
2023/10/26 02:58:37;;;;;;;13.88;9.93;;;;;;;;;;5116509;28;20035;-79
2023/10/26 03:01:03;;;;;;;15.77;10.18;;;;;;;;;;5116648;28;20031;-79
2023/10/26 03:03:29;;;;;;;15.95;11.10;;;;;;;;;;5106692;28;20093;-79
2023/10/26 03:05:58;;;;;;;17.27;9.48;;;;;;;;;;5111461;28;20420;-79
2023/10/26 03:08:24;;;;;;;13.75;8.93;;;;;;;;;;5117684;28;20126;-79
2023/10/26 03:10:50;;;;;;;12.80;8.75;;;;;;;;;;5116707;28;20067;-79
2023/10/26 03:13:16;;;;;;;14.27;9.05;;;;;;;;;;5115334;28;20043;-79
2023/10/26 03:15:42;;;;;;;15.90;10.73;;;;;;;;;;5117388;28;20074;-79
2023/10/26 03:18:08;;;;;;;13.52;9.27;;;;;;;;;;5115532;28;20051;-79
2023/10/26 03:20:35;;;;;;;18.83;11.15;;;;;;;;;;5114216;28;20391;-79
2023/10/26 03:23:01;;;;;;;18.48;11.00;;;;;;;;;;5116646;27;20107;-79
2023/10/26 03:25:27;;;;;;;18.25;11.00;;;;;;;;;;5115787;28;20036;-79
2023/10/26 03:27:53;;;;;;;14.77;9.68;;;;;;;;;;5114958;28;20119;-79
2023/10/26 03:30:20;;;;;;;16.55;10.48;;;;;;;;;;5115859;28;20499;-79
2023/10/26 03:32:46;;;;;;;17.00;10.23;;;;;;;;;;5111124;28;20062;-79
2023/10/26 03:35:12;;;;;;;19.30;10.40;;;;;;;;;;5115411;28;20067;-79
2023/10/26 03:37:38;;;;;;;16.42;10.32;;;;;;;;;;5116593;28;20482;-79
2023/10/26 03:40:07;;;;;;;15.77;10.38;;;;;;;;;;5098495;28;20043;-79
2023/10/26 03:42:34;;;;;;;18.23;11.63;;;;;;;;;;5112547;28;20393;-79
2023/10/26 03:45:00;;;;;;;20.77;12.32;;;;;;;;;;5116439;28;20057;-79
2023/10/26 03:47:26;;;;;;;20.90;10.98;;;;;;;;;;5116901;28;20448;-79
2023/10/26 03:49:52;;;;;;;19.45;12.77;;;;;;;;;;5098376;28;20032;-79
2023/10/26 03:52:22;;;;;;;21.00;13.38;;;;;;;;;;5116993;28;20497;-80
2023/10/26 03:54:48;;;;;;;21.95;12.43;;;;;;;;;;5114768;28;20092;-80
2023/10/26 03:57:15;;;;;;;19.42;12.30;;;;;;;;;;5115448;28;20077;-79
2023/10/26 03:59:41;;;;;;;17.85;10.77;;;;;;;;;;5114864;28;20046;-79
2023/10/26 04:02:07;;;;;;;18.40;11.13;;;;;;;;;;5112199;28;20122;-79
2023/10/26 04:04:33;;;;;;;18.65;11.88;;;;;;;;;;5115931;28;20043;-80
2023/10/26 04:06:59;;;;;;;18.75;11.30;;;;;;;;;;5115840;28;20074;-80
2023/10/26 04:09:25;;;;;;;17.45;11.18;;;;;;;;;;5117097;28;20043;-79
2023/10/26 04:11:51;;;;;;;15.25;10.52;;;;;;;;;;5117837;28;20046;-79
2023/10/26 04:14:18;;;;;;;17.58;10.80;;;;;;;;;;5115654;28;20100;-79
2023/10/26 04:16:47;;;;;;;19.20;10.60;;;;;;;;;;5113805;28;20042;-79
2023/10/26 04:19:13;;;;;;;19.25;11.90;;;;;;;;;;5111706;28;20051;-79
2023/10/26 04:21:39;;;;;;;18.23;10.77;;;;;;;;;;5114972;28;20284;-79
2023/10/26 04:24:05;;;;;;;19.65;11.75;;;;;;;;;;5114263;28;20040;-79
2023/10/26 04:26:31;;;;;;;19.58;12.20;;;;;;;;;;5116774;28;20509;-79
2023/10/26 04:28:57;;;;;;;16.92;10.30;;;;;;;;;;5114775;27;20039;-80
2023/10/26 04:31:24;;;;;;;15.85;10.20;;;;;;;;;;5108308;28;20039;-79
2023/10/26 04:33:51;;;;;;;18.17;11.95;;;;;;;;;;5112634;28;20054;-79
2023/10/26 04:36:17;;;;;;;17.08;10.73;;;;;;;;;;5115237;28;20051;-79
2023/10/26 04:38:43;;;;;;;15.77;9.88;;;;;;;;;;5116595;28;20366;-79
2023/10/26 04:41:09;;;;;;;15.05;10.10;;;;;;;;;;5115457;28;20063;-80
2023/10/26 04:43:35;;;;;;;17.80;10.88;;;;;;;;;;5115639;28;20070;-79
2023/10/26 04:46:01;;;;;;;25.10;11.98;;;;;;;;;;5117527;28;20035;-80
2023/10/26 04:48:27;;;;;;;19.90;10.77;;;;;;;;;;5122618;28;20067;-79
2023/10/26 04:50:53;;;;;;;19.35;11.27;;;;;;;;;;5123133;28;20107;-79
2023/10/26 04:53:19;;;;;;;24.40;12.55;;;;;;;;;;5129514;28;20036;-79
2023/10/26 04:55:45;;;;;;;21.30;10.82;;;;;;;;;;5130882;28;20363;-79
2023/10/26 04:58:11;;;;;;;19.17;11.70;;;;;;;;;;5129689;28;20137;-79
2023/10/26 05:00:37;;;;;;;20.48;12.82;;;;;;;;;;5109548;28;20075;-79
2023/10/26 05:03:03;;;;;;;21.63;13.70;;;;;;;;;;5105261;28;20046;-79
2023/10/26 05:05:29;;;;;;;20.02;12.68;;;;;;;;;;5113176;28;20058;-79
2023/10/26 05:07:55;;;;;;;18.45;11.70;;;;;;;;;;5112717;28;20092;-79
2023/10/26 05:10:22;;;;;;;18.67;11.85;;;;;;;;;;5108188;28;20069;-80
2023/10/26 05:12:48;;;;;;;19.25;11.95;;;;;;;;;;5113178;28;20045;-79
2023/10/26 05:15:14;;;;;;;22.15;13.05;;;;;;;;;;5112131;28;20039;-79
2023/10/26 05:17:40;;;;;;;16.50;10.20;;;;;;;;;;5105781;28;20579;-79
2023/10/26 05:20:06;;;;;;;18.80;11.40;;;;;;;;;;5111547;28;20035;-79
2023/10/26 05:22:32;;;;;;;17.70;10.60;;;;;;;;;;5107087;28;20046;-80
2023/10/26 05:25:00;;;;;;;17.85;10.35;;;;;;;;;;5109849;28;20067;-80
2023/10/26 05:27:26;;;;;;;18.17;10.93;;;;;;;;;;5108973;28;20036;-80
2023/10/26 05:29:53;;;;;;;16.33;11.98;;;;;;;;;;5117036;28;20116;-80
2023/10/26 05:32:20;;;;;;;18.02;11.30;;;;;;;;;;5115424;28;20127;-80
2023/10/26 05:34:46;;;;;;;19.83;11.95;;;;;;;;;;5115638;28;20524;-80
2023/10/26 05:37:12;;;;;;;17.63;11.63;;;;;;;;;;5111252;28;20032;-80
2023/10/26 05:39:38;;;;;;;22.17;12.40;;;;;;;;;;5116392;28;20039;-80
2023/10/26 05:42:04;;;;;;;18.55;10.85;;;;;;;;;;5113083;28;20088;-80
2023/10/26 05:44:31;;;;;;;20.77;11.35;;;;;;;;;;5110460;28;20127;-80
2023/10/26 05:46:59;;;;;;;19.33;10.25;;;;;;;;;;5115357;28;20040;-80
2023/10/26 05:49:25;;;;;;;17.50;10.45;;;;;;;;;;5118815;28;20500;-80
2023/10/26 05:51:51;;;;;;;19.10;12.13;;;;;;;;;;5113486;28;20044;-80
2023/10/26 05:54:17;;;;;;;19.50;11.27;;;;;;;;;;5115133;28;20147;-80
2023/10/26 05:56:43;;;;;;;20.27;11.13;;;;;;;;;;5115315;28;20050;-79
2023/10/26 05:59:09;;;;;;;18.98;11.85;;;;;;;;;;5116811;28;20047;-80
2023/10/26 06:01:35;;;;;;;17.05;10.18;;;;;;;;;;5115125;28;20398;-79
2023/10/26 06:04:01;;;;;;;19.55;10.98;;;;;;;;;;5116893;28;20051;-79
2023/10/26 06:06:27;;;;;;;21.05;11.82;;;;;;;;;;5115934;28;20039;-79
2023/10/26 06:08:53;;;;;;;20.17;11.70;;;;;;;;;;5118769;28;20490;-79
2023/10/26 06:11:19;;;;;;;19.63;10.80;;;;;;;;;;5118356;28;20042;-79
2023/10/26 06:13:45;;;;;;;19.20;12.07;;;;;;;;;;5119050;28;20481;-79
2023/10/26 06:16:15;;;;;;;21.98;11.95;;;;;;;;;;5116476;28;20035;-79
2023/10/26 06:18:41;;;;;;;17.02;10.30;;;;;;;;;;5120595;28;20058;-79
2023/10/26 06:21:07;;;;;;;23.73;12.18;;;;;;;;;;5104165;28;20036;-79
2023/10/26 06:23:34;;;;;;;16.90;11.07;;;;;;;;;;5115191;28;20055;-79
2023/10/26 06:26:00;;;;;;;17.65;10.38;;;;;;;;;;5100575;27;20052;-80
2023/10/26 06:28:27;;;;;;;18.08;10.88;;;;;;;;;;5115886;28;20039;-79
2023/10/26 06:30:53;;;;;;;17.95;10.35;;;;;;;;;;5116347;28;20042;-79
2023/10/26 06:33:19;;;;;;;19.50;10.68;;;;;;;;;;5115167;28;20046;-79
2023/10/26 06:35:45;;;;;;;18.60;10.50;;;;;;;;;;5118630;28;20093;-79
2023/10/26 06:38:11;;;;;;;17.77;11.20;;;;;;;;;;5124449;28;20043;-79
2023/10/26 06:40:38;;;;;;;17.33;10.27;;;;;;;;;;5120936;28;20540;-80
2023/10/26 06:43:04;;;;;;;19.25;11.60;;;;;;;;;;5116599;28;20036;-80
2023/10/26 06:45:30;;;;;;;16.70;9.45;;;;;;;;;;5114717;28;20035;-79
2023/10/26 06:47:56;;;;;;;18.10;10.02;;;;;;;;;;5116029;28;20562;-79
2023/10/26 06:50:23;;;;;;;16.55;10.20;;;;;;;;;;5117001;28;20043;-80
2023/10/26 06:52:49;;;;;;;17.55;10.52;;;;;;;;;;5113234;28;20711;-81
2023/10/26 06:55:16;;;;;;;17.58;9.93;;;;;;;;;;5114766;28;20032;-80
2023/10/26 06:57:42;;;;;;;17.33;10.20;;;;;;;;;;5118430;28;20079;-80
2023/10/26 07:00:12;;;;;;;18.38;11.48;;;;;;;;;;5112881;27;20043;-80
2023/10/26 07:02:38;;;;;;;17.00;10.57;;;;;;;;;;5113696;28;20047;-81
2023/10/26 07:05:04;;;;;;;21.73;11.73;;;;;;;;;;5114499;28;20046;-80
2023/10/26 07:07:33;;;;;;;17.80;10.65;;;;;;;;;;5113917;28;20088;-80
2023/10/26 07:09:59;;;;;;;18.58;10.70;;;;;;;;;;5111002;28;20072;-80
2023/10/26 07:12:25;;;;;;;18.25;11.13;;;;;;;;;;5110475;28;20043;-80
2023/10/26 07:14:54;;;;;;;18.35;11.40;;;;;;;;;;5114771;28;20039;-80
2023/10/26 07:17:21;;;;;;;19.38;11.35;;;;;;;;;;5111017;28;20088;-79
2023/10/26 07:19:47;;;;;;;18.33;9.43;;;;;;;;;;5113947;28;20047;-79
2023/10/26 07:22:13;;;;;;;21.77;11.43;;;;;;;;;;5113656;27;20046;-81
2023/10/26 07:24:39;;;;;;;18.08;11.32;;;;;;;;;;5116910;28;20032;-81
2023/10/26 07:27:05;;;;;;;19.42;11.30;;;;;;;;;;5115020;28;20114;-81
2023/10/26 07:29:31;;;;;;;21.40;12.30;;;;;;;;;;5116245;28;20074;-80
2023/10/26 07:31:57;;;;;;;31.42;10.60;;;;;;;;;;5112948;27;20399;-81
2023/10/26 07:34:23;;;;;;;34.13;11.32;;;;;;;;;;5112402;28;20095;-82
2023/10/26 07:36:49;;;;;;;34.58;10.80;;;;;;;;;;5117099;28;20051;-81
2023/10/26 07:39:15;;;;;;;21.20;10.68;;;;;;;;;;5099235;28;20089;-81
2023/10/26 07:41:41;;;;;;;21.27;9.80;;;;;;;;;;5116687;28;20047;-82
2023/10/26 07:44:07;;;;;;;43.47;10.75;;;;;;;;;;5098137;28;20043;-80
2023/10/26 07:46:33;;;;;;;31.08;10.15;;;;;;;;;;5115559;28;20048;-81
2023/10/26 07:48:59;;;;;;;24.58;10.07;;;;;;;;;;5117937;28;20051;-81
2023/10/26 07:51:25;;;;;;;18.55;9.90;;;;;;;;;;5117788;28;20044;-81
2023/10/26 07:53:51;;;;;;;15.63;9.50;;;;;;;;;;5118282;28;20039;-81
2023/10/26 07:56:17;;;;;;;16.95;10.38;;;;;;;;;;5115126;28;20077;-81
2023/10/26 07:58:43;;;;;;;20.15;10.50;;;;;;;;;;5117604;28;20044;-81
2023/10/26 08:01:09;;;;;;;17.45;10.10;;;;;;;;;;5114109;28;20149;-80
2023/10/26 08:03:35;;;;;;;22.95;11.27;;;;;;;;;;5111249;28;20044;-79
2023/10/26 08:06:02;;;;;;;17.15;11.27;;;;;;;;;;5113914;28;20119;-81
2023/10/26 08:08:29;;;;;;;18.45;10.55;;;;;;;;;;5115122;28;20051;-80
2023/10/26 08:10:55;;;;;;;17.38;10.40;;;;;;;;;;5116117;28;20061;-81
2023/10/26 08:13:21;;;;;;;20.10;12.23;;;;;;;;;;5115654;28;20505;-80
2023/10/26 08:15:47;;;;;;;17.73;10.50;;;;;;;;;;5116738;28;20110;-80
2023/10/26 08:18:13;;;;;;;18.27;11.07;;;;;;;;;;5115065;28;20130;-79
2023/10/26 08:20:39;;;;;;;21.83;11.50;;;;;;;;;;5115664;28;20398;-80
2023/10/26 08:23:05;;;;;;;20.58;12.70;;;;;;;;;;5109433;28;20046;-79
2023/10/26 08:25:35;;;;;;;21.70;11.32;;;;;;;;;;5114654;28;20545;-79
2023/10/26 08:28:02;;;;;;;21.08;11.88;;;;;;;;;;5113740;28;20099;-79
2023/10/26 08:30:28;;;;;;;19.55;11.50;;;;;;;;;;5116990;28;20088;-80
2023/10/26 08:32:56;;;;;;;22.13;13.05;;;;;;;;;;5122118;28;20031;-80
2023/10/26 08:35:22;;;;;;;21.30;12.98;;;;;;;;;;5107951;28;20039;-79
2023/10/26 08:37:49;;;;;;;22.27;12.02;;;;;;;;;;5131008;28;20059;-79
2023/10/26 08:40:15;;;;;;;21.35;12.77;;;;;;;;;;5124597;28;20078;-81
2023/10/26 08:42:43;;;;;;;18.50;11.00;;;;;;;;;;5119822;28;20044;-81
2023/10/26 08:45:14;;;;;;;19.70;11.80;;;;;;;;;;5146753;27;20061;-81
2023/10/26 08:47:41;;;;;;;21.35;11.80;;;;;;;;;;5111630;28;20394;-81
2023/10/26 08:50:08;;;;;;;22.23;12.40;;;;;;;;;;5113186;28;20040;-81
2023/10/26 08:52:34;;;;;;;20.00;11.80;;;;;;;;;;5113421;28;20059;-81
2023/10/26 08:55:00;;;;;;;21.33;11.63;;;;;;;;;;5091460;27;20093;-81
2023/10/26 08:57:26;;;;;;;22.10;12.02;;;;;;;;;;5105947;28;20495;-81
2023/10/26 08:59:53;;;;;;;18.85;12.20;;;;;;;;;;5111980;28;20115;-81
2023/10/26 09:02:19;;;;;;;23.00;13.38;;;;;;;;;;5114799;28;20070;-81
2023/10/26 09:05:02;;;;;;;25.40;13.10;;;;;;;;;;5112417;28;20099;-81
2023/10/26 09:07:28;;;;;;;18.90;11.30;;;;;;;;;;5111655;28;20106;-81
2023/10/26 09:09:54;;;;;;;21.17;11.75;;;;;;;;;;5111452;28;20077;-81
2023/10/26 09:12:20;;;;;;;20.83;12.07;;;;;;;;;;5095577;28;20058;-83
2023/10/26 09:15:03;;;;;;;21.15;11.20;;;;;;;;;;5107776;28;20046;-79
2023/10/26 09:17:30;;;;;;;18.35;9.93;;;;;;;;;;5111847;28;20047;-80
2023/10/26 09:19:57;;;;;;;21.58;12.00;;;;;;;;;;5111089;28;20403;-80
2023/10/26 09:22:38;;;;;;;20.40;11.57;;;;;;;;;;5109507;28;20031;-80
2023/10/26 09:25:08;;;;;;;19.45;10.45;;;;;;;;;;5108487;28;20428;-80
2023/10/26 09:27:35;;;;;;;19.65;10.35;;;;;;;;;;5110257;28;20036;-80
2023/10/26 09:30:01;;;;;;;20.30;10.30;;;;;;;;;;5113981;28;20036;-81
2023/10/26 09:32:32;;;;;;;20.35;10.80;;;;;;;;;;5114489;28;20046;-80
2023/10/26 09:34:57;;;;;;;20.98;11.32;;;;;;;;;;5112989;28;20028;-80
2023/10/26 09:37:23;;;;;;;17.98;10.80;;;;;;;;;;5114968;28;20112;-80
2023/10/26 09:39:50;;;;;;;19.60;11.52;;;;;;;;;;5110560;28;20042;-80
2023/10/26 09:42:16;;;;;;;19.85;11.13;;;;;;;;;;5104099;28;20071;-79
2023/10/26 09:44:42;;;;;;;18.20;9.25;;;;;;;;;;5117124;28;20498;-79
2023/10/26 09:47:08;;;;;;;16.20;9.98;;;;;;;;;;5115412;28;20134;-79
2023/10/26 09:49:34;;;;;;;16.95;9.57;;;;;;;;;;5112629;28;20049;-79
2023/10/26 09:52:00;;;;;;;16.65;10.25;;;;;;;;;;5115360;28;20486;-80
2023/10/26 09:54:37;;;;;;;16.35;10.18;;;;;;;;;;5112524;28;20124;-80
2023/10/26 09:57:21;;;;;;;15.82;10.00;;;;;;;;;;5106545;27;20122;-80
2023/10/26 09:59:52;;;;;;;16.70;10.55;;;;;;;;;;5114989;28;20395;-80
2023/10/26 10:02:19;;;;;;;15.27;9.45;;;;;;;;;;5114419;28;20075;-80
2023/10/26 10:04:45;;;;;;;18.02;9.70;;;;;;;;;;5113706;28;20055;-80
2023/10/26 10:07:18;;;;;;;16.50;9.65;;;;;;;;;;5101052;28;20058;-80
2023/10/26 10:10:03;;;;;;;15.60;8.82;;;;;;;;;;5110397;28;20065;-80
2023/10/26 10:12:29;;;;;;;15.32;9.70;;;;;;;;;;5116906;28;20100;-80
2023/10/26 10:14:57;;;;;;;14.40;8.48;;;;;;;;;;5116867;28;20502;-79
2023/10/26 10:17:43;;;;;;;11.82;8.25;;;;;;;;;;5117112;28;20040;-80
2023/10/26 10:20:30;;;;;;;15.43;8.48;;;;;;;;;;5115061;27;20035;-79
2023/10/26 10:22:58;;;;;;;13.82;8.38;;;;;;;;;;5114065;28;20087;-78
2023/10/26 10:25:44;;;;;;;15.63;9.35;;;;;;;;;;5115979;27;20031;-79
2023/10/26 10:28:11;;;;;;;14.95;9.55;;;;;;;;;;5113234;28;20047;-79
2023/10/26 10:30:47;;;;;;;14.02;8.77;;;;;;;;;;5116287;28;20035;-80
2023/10/26 10:33:21;;;;;;;14.27;8.98;;;;;;;;;;5115795;28;20049;-80
2023/10/26 10:35:51;;;;;;;15.70;8.52;;;;;;;;;;5117866;28;20036;-81
2023/10/26 10:38:18;;;;;;;14.55;9.85;;;;;;;;;;5115586;28;20097;-81
2023/10/26 10:40:59;;;;;;;15.02;9.13;;;;;;;;;;5115659;28;20050;-80
2023/10/26 10:43:32;;;;;;;13.38;8.35;;;;;;;;;;5113002;28;20040;-77
2023/10/26 10:46:09;;;;;;;11.60;7.13;;;;;;;;;;5112391;28;20424;-77
2023/10/26 10:48:36;;;;;;;16.92;9.02;;;;;;;;;;5109895;28;20044;-77
2023/10/26 10:51:02;;;;;;;13.43;8.65;;;;;;;;;;5111860;28;20123;-78
2023/10/26 10:53:29;;;;;;;13.77;8.52;;;;;;;;;;5110906;28;20042;-77
2023/10/26 10:55:55;;;;;;;13.82;9.30;;;;;;;;;;5105634;27;20038;-77
2023/10/26 10:58:21;;;;;;;14.73;9.05;;;;;;;;;;5109713;28;20503;-77
2023/10/26 11:00:49;;;;;;;13.40;7.80;;;;;;;;;;5116176;28;20039;-80
2023/10/26 11:03:19;;;;;;;11.90;8.30;;;;;;;;;;5117099;28;20044;-80
2023/10/26 11:05:45;;;;;;;12.60;7.90;;;;;;;;;;5113279;27;20495;-83
2023/10/26 11:08:11;;;;;;;14.32;9.20;;;;;;;;;;5115227;28;20046;-81
2023/10/26 11:10:37;;;;;;;13.52;8.07;;;;;;;;;;5113394;28;20040;-79
2023/10/26 11:13:04;;;;;;;12.30;8.50;;;;;;;;;;5113656;28;20039;-80
2023/10/26 11:15:33;;;;;;;13.90;8.50;;;;;;;;;;5114596;28;20050;-80
2023/10/26 11:18:00;;;;;;;12.20;7.80;;;;;;;;;;5114867;28;20036;-80
2023/10/26 11:20:43;;;;;;;11.43;7.90;;;;;;;;;;5116315;28;20039;-80
2023/10/26 11:23:12;;;;;;;10.27;6.93;;;;;;;;;;5107352;28;20591;-80
2023/10/26 11:25:38;;;;;;;12.43;7.97;;;;;;;;;;5113424;28;20031;-81
2023/10/26 11:28:04;;;;;;;10.55;6.97;;;;;;;;;;5113893;27;20406;-79
2023/10/26 11:30:44;;;;;;;11.25;7.47;;;;;;;;;;5116070;28;20480;-80
2023/10/26 11:33:11;;;;;;;14.15;7.55;;;;;;;;;;5113651;28;20041;-79
2023/10/26 11:35:42;;;;;;;11.43;7.10;;;;;;;;;;5108010;28;20089;-80
2023/10/26 11:38:09;;;;;;;11.27;6.72;;;;;;;;;;5111981;28;20124;-79
2023/10/26 11:40:35;;;;;;;10.85;7.13;;;;;;;;;;5111106;28;20050;-81
2023/10/26 11:43:03;;;;;;;11.48;7.60;;;;;;;;;;5114492;28;20082;-81
2023/10/26 11:45:29;;;;;;;11.77;7.15;;;;;;;;;;5115533;28;20139;-80
2023/10/26 11:47:59;;;;;;;11.27;8.45;;;;;;;;;;5111240;28;20077;-79
2023/10/26 11:50:25;;;;;;;11.07;7.15;;;;;;;;;;5112109;28;20075;-80
2023/10/26 11:52:52;;;;;;;11.20;7.40;;;;;;;;;;5114929;27;20040;-81
2023/10/26 11:55:18;;;;;;;11.27;7.90;;;;;;;;;;5112971;28;20071;-80
2023/10/26 11:57:45;;;;;;;10.57;7.03;;;;;;;;;;5113653;27;20135;-80
2023/10/26 12:00:12;;;;;;;11.90;7.90;;;;;;;;;;5109167;28;20051;-81
2023/10/26 12:02:38;;;;;;;12.18;8.13;;;;;;;;;;5113411;28;20040;-80
2023/10/26 12:05:04;;;;;;;12.00;7.40;;;;;;;;;;5111456;28;20106;-80
2023/10/26 12:07:31;;;;;;;12.98;7.50;;;;;;;;;;5111738;28;20305;-81
2023/10/26 12:09:57;;;;;;;13.13;8.10;;;;;;;;;;5114263;28;20039;-81
2023/10/26 12:12:25;;;;;;;10.65;6.63;;;;;;;;;;5110909;28;20051;-81
2023/10/26 12:14:51;;;;;;;11.60;7.63;;;;;;;;;;5110851;28;20072;-81
2023/10/26 12:17:16;;;;;;;10.63;7.35;;;;;;;;;;5107175;28;20518;-81
2023/10/26 12:19:42;;;;;;;11.32;7.93;;;;;;;;;;5101632;27;20080;-82
2023/10/26 12:22:08;;;;;;;11.10;7.70;;;;;;;;;;5104644;28;20050;-81
2023/10/26 12:24:35;;;;;;;14.07;8.27;;;;;;;;;;5106476;28;20031;-81
2023/10/26 12:27:02;;;;;;;12.45;8.10;;;;;;;;;;5107901;28;20039;-81
2023/10/26 12:29:29;;;;;;;12.30;7.63;;;;;;;;;;5109698;28;20044;-80
2023/10/26 12:31:55;;;;;;;12.57;8.90;;;;;;;;;;5106100;28;20490;-81
2023/10/26 12:34:21;;;;;;;13.40;7.15;;;;;;;;;;5111604;28;20058;-80
2023/10/26 12:36:47;;;;;;;12.27;8.73;;;;;;;;;;5122219;28;20099;-81
2023/10/26 12:39:13;;;;;;;10.93;7.95;;;;;;;;;;5121405;28;20097;-80
2023/10/26 12:41:42;;;;;;;14.13;9.00;;;;;;;;;;5118299;28;20040;-81
2023/10/26 12:44:08;;;;;;;11.27;7.28;;;;;;;;;;5117238;28;20392;-82
2023/10/26 12:46:34;;;;;;;12.43;8.48;;;;;;;;;;5096130;28;20043;-81
2023/10/26 12:49:00;;;;;;;17.17;8.88;;;;;;;;;;5111108;28;20047;-81
2023/10/26 12:51:26;;;;;;;13.35;7.82;;;;;;;;;;5113383;28;20043;-81
2023/10/26 12:53:52;;;;;;;10.73;7.50;;;;;;;;;;5109652;28;20067;-81
2023/10/26 12:56:18;;;;;;;10.70;7.55;;;;;;;;;;5107260;28;20055;-82
2023/10/26 12:58:44;;;;;;;9.45;6.85;;;;;;;;;;5113309;28;20430;-81
2023/10/26 13:01:10;;;;;;;10.85;7.18;;;;;;;;;;5092464;28;20036;-82
2023/10/26 13:03:39;;;;;;;12.05;7.93;;;;;;;;;;5106928;28;20113;-82
2023/10/26 13:06:05;;;;;;;11.18;7.43;;;;;;;;;;5109688;28;20038;-82
2023/10/26 13:08:31;;;;;;;11.80;7.30;;;;;;;;;;5109771;28;20122;-82
2023/10/26 13:10:57;;;;;;;11.63;7.63;;;;;;;;;;5110715;28;20040;-82
2023/10/26 13:13:23;;;;;;;9.07;6.15;;;;;;;;;;5110238;28;20754;-82
2023/10/26 13:15:49;;;;;;;10.45;7.25;;;;;;;;;;5111812;28;20039;-82
2023/10/26 13:18:15;;;;;;;10.55;6.63;;;;;;;;;;5106201;28;20441;-82
2023/10/26 13:20:41;;;;;;;10.07;6.97;;;;;;;;;;5105754;28;20035;-82
2023/10/26 13:23:07;;;;;;;9.05;6.50;;;;;;;;;;5106880;28;20046;-81
2023/10/26 13:25:33;;;;;;;10.13;7.07;;;;;;;;;;5110123;28;20537;-81
2023/10/26 13:28:00;;;;;;;11.00;7.60;;;;;;;;;;5110094;28;20035;-82
2023/10/26 13:30:27;;;;;;;9.50;7.30;;;;;;;;;;5093001;28;20078;-82
2023/10/26 13:32:53;;;;;;;10.60;6.85;;;;;;;;;;5105153;28;20043;-82
2023/10/26 13:35:19;;;;;;;8.35;7.05;;;;;;;;;;5115159;28;20127;-82
2023/10/26 13:37:46;;;;;;;9.43;6.28;;;;;;;;;;5114310;28;20036;-82
2023/10/26 13:40:12;;;;;;;7.95;5.80;;;;;;;;;;5109226;28;20043;-82
2023/10/26 13:42:39;;;;;;;8.45;6.13;;;;;;;;;;5113770;28;20035;-82
2023/10/26 13:45:05;;;;;;;9.55;6.22;;;;;;;;;;5105082;28;20076;-82
2023/10/26 13:47:31;;;;;;;10.75;7.05;;;;;;;;;;5112329;28;20055;-82
2023/10/26 13:49:57;;;;;;;8.93;6.47;;;;;;;;;;5112583;28;20040;-81
2023/10/26 13:52:24;;;;;;;9.23;6.68;;;;;;;;;;5112050;28;20048;-82
2023/10/26 13:54:50;;;;;;;11.02;7.30;;;;;;;;;;5115817;28;20054;-82
2023/10/26 13:57:17;;;;;;;10.13;7.65;;;;;;;;;;5115234;28;20056;-82
2023/10/26 13:59:42;;;;;;;12.75;8.60;;;;;;;;;;5114184;28;20417;-82
2023/10/26 14:02:08;;;;;;;14.18;8.73;;;;;;;;;;5114991;28;20851;-82
2023/10/26 14:04:35;;;;;;;11.93;8.45;;;;;;;;;;5110211;28;20064;-82
2023/10/26 14:07:01;;;;;;;11.43;7.93;;;;;;;;;;5111296;28;20085;-82
2023/10/26 14:09:30;;;;;;;14.02;8.73;;;;;;;;;;5109316;28;20047;-82
2023/10/26 14:12:00;;;;;;;12.27;8.95;;;;;;;;;;5109298;28;20186;-82
2023/10/26 14:14:26;;;;;;;14.18;8.80;;;;;;;;;;5144604;27;20047;-83
2023/10/26 14:16:52;;;;;;;12.48;8.65;;;;;;;;;;5112128;28;20040;-83
2023/10/26 14:19:18;;;;;;;11.75;8.35;;;;;;;;;;5112638;28;20042;-83
2023/10/26 14:21:44;;;;;;;12.90;9.05;;;;;;;;;;5110937;28;20047;-83